Time;durP1;ratioP1;P1;durP2;ratioP2;P2;SDS_P1;SDS_P2;PMS_P1;PMS_P2;Temp;Humidity;BMP_temperature;BMP_pressure;BME280_temperature;BME280_humidity;BME280_pressure;Samples;Min_cycle;Max_cycle;Signal;HPM_P1;HPM_P2
2021/08/15 00:00:38;;;;;;;21.77;9.27;;;;;;;18.52;67.16;100902.30;126284;1098;104168;-78
2021/08/15 00:03:21;;;;;;;18.52;8.75;;;;;;;18.45;67.13;100896.04;126328;1098;104166;-78
2021/08/15 00:05:52;;;;;;;21.13;9.07;;;;;;;18.43;67.33;100899.55;126304;1098;105477;-78
2021/08/15 00:08:22;;;;;;;24.17;9.40;;;;;;;18.38;67.76;100896.84;126305;1099;104143;-77
2021/08/15 00:10:53;;;;;;;22.00;9.50;;;;;;;18.35;67.39;100890.62;126302;1099;104563;-78
2021/08/15 00:13:24;;;;;;;21.50;9.50;;;;;;;18.29;67.26;100886.12;126322;1099;104165;-78
2021/08/15 00:15:55;;;;;;;21.50;8.93;;;;;;;18.28;68.04;100887.90;126323;1099;104194;-79
2021/08/15 00:18:25;;;;;;;20.27;9.43;;;;;;;18.27;68.53;100880.80;126226;1099;104155;-78
2021/08/15 00:20:56;;;;;;;21.63;9.43;;;;;;;18.24;68.08;100887.84;126341;1099;104156;-78
2021/08/15 00:23:27;;;;;;;26.17;10.37;;;;;;;18.23;68.33;100886.06;126346;1099;104322;-79
2021/08/15 00:25:58;;;;;;;24.97;9.87;;;;;;;18.18;68.16;100899.28;126345;1099;104178;-78
2021/08/15 00:28:29;;;;;;;20.53;9.07;;;;;;;18.13;68.25;100895.70;126233;1099;104561;-78
2021/08/15 00:30:59;;;;;;;25.70;10.17;;;;;;;18.10;68.29;100888.58;126306;1099;104348;-78
2021/08/15 00:33:30;;;;;;;21.70;9.70;;;;;;;18.08;67.98;100886.80;126317;1099;104134;-78
2021/08/15 00:36:00;;;;;;;24.33;10.33;;;;;;;18.06;68.56;100886.78;126335;1099;104140;-78
2021/08/15 00:38:31;;;;;;;21.57;9.53;;;;;;;18.03;68.40;100886.75;126325;1099;104156;-78
2021/08/15 00:41:04;;;;;;;23.93;9.60;;;;;;;18.02;68.72;100878.77;126358;1099;104330;-79
2021/08/15 00:43:35;;;;;;;24.57;10.23;;;;;;;18.00;68.57;100881.41;126251;1099;104238;-78
2021/08/15 00:46:10;;;;;;;22.40;9.97;;;;;;;18.02;68.30;100884.08;126355;1099;104265;-79
2021/08/15 00:48:42;;;;;;;23.30;9.87;;;;;;;18.05;68.94;100881.45;126273;1099;104136;-78
2021/08/15 00:51:12;;;;;;;23.70;9.90;;;;;;;18.06;68.80;100875.25;126385;1099;104149;-78
2021/08/15 00:53:43;;;;;;;22.40;10.23;;;;;;;18.01;68.98;100887.59;126353;1099;104216;-78
2021/08/15 00:56:16;;;;;;;24.70;10.27;;;;;;;17.97;68.87;100884.02;126333;1099;104194;-78
2021/08/15 00:58:46;;;;;;;21.07;9.30;;;;;;;17.95;68.82;100884.01;126262;1099;104178;-77
2021/08/15 01:01:18;;;;;;;25.20;10.03;;;;;;;17.94;69.50;100874.25;126303;1098;104194;-78
2021/08/15 01:03:49;;;;;;;22.53;9.17;;;;;;;17.93;69.05;100876.89;126265;1099;104226;-78
2021/08/15 01:06:20;;;;;;;20.23;9.43;;;;;;;17.90;69.33;100877.77;126354;1099;104221;-78
2021/08/15 01:08:51;;;;;;;20.47;10.13;;;;;;;17.91;69.48;100875.98;126215;1099;104210;-78
2021/08/15 01:11:22;;;;;;;24.60;10.87;;;;;;;17.90;69.41;100879.50;126279;1098;104226;-78
2021/08/15 01:13:53;;;;;;;22.80;10.23;;;;;;;17.86;69.54;100875.02;126309;1099;104246;-78
2021/08/15 01:16:24;;;;;;;22.80;10.17;;;;;;;17.78;69.52;100878.46;126326;1099;104163;-79
2021/08/15 01:18:54;;;;;;;22.27;10.53;;;;;;;17.71;69.57;100881.90;126260;1099;104150;-78
2021/08/15 01:21:25;;;;;;;24.10;9.60;;;;;;;17.65;69.74;100881.82;126304;1099;104718;-78
2021/08/15 01:23:56;;;;;;;27.37;10.17;;;;;;;17.63;69.75;100877.39;126344;1099;104197;-78
2021/08/15 01:26:26;;;;;;;22.23;10.23;;;;;;;17.61;70.00;100869.41;126335;1098;104242;-78
2021/08/15 01:28:57;;;;;;;21.37;9.40;;;;;;;17.60;69.95;100867.61;126313;1099;104140;-78
2021/08/15 01:31:28;;;;;;;21.20;9.60;;;;;;;17.61;70.06;100875.59;126308;1099;104160;-78
2021/08/15 01:33:58;;;;;;;21.77;9.93;;;;;;;17.60;69.84;100862.30;126274;1099;104326;-78
2021/08/15 01:36:29;;;;;;;19.23;9.43;;;;;;;17.57;70.35;100865.80;126333;1099;104150;-78
2021/08/15 01:39:00;;;;;;;24.97;9.10;;;;;;;17.56;70.50;100873.73;126278;1099;104172;-78
2021/08/15 01:41:31;;;;;;;21.50;9.25;;;;;;;17.53;70.80;100866.66;126334;1099;104146;-77
2021/08/15 01:44:03;;;;;;;24.80;9.83;;;;;;;17.49;70.73;100864.81;126302;1099;102379;-77
2021/08/15 01:46:35;;;;;;;24.23;9.73;;;;;;;17.45;70.65;100872.72;126217;1099;104303;-77
2021/08/15 01:49:06;;;;;;;23.60;9.70;;;;;;;17.42;70.90;100876.20;126249;1099;104188;-77
2021/08/15 01:51:37;;;;;;;25.40;9.83;;;;;;;17.42;70.72;100874.47;126309;1099;104181;-78
2021/08/15 01:54:08;;;;;;;23.43;8.90;;;;;;;17.43;70.95;100870.05;126316;1099;104191;-77
2021/08/15 01:56:39;;;;;;;24.30;9.80;;;;;;;17.45;70.76;100873.59;126285;1099;104150;-76
2021/08/15 01:59:10;;;;;;;22.43;9.37;;;;;;;17.47;70.90;100874.53;126209;1099;104382;-78
2021/08/15 02:01:40;;;;;;;24.33;10.17;;;;;;;17.47;70.60;100870.97;126246;1099;104219;-78
2021/08/15 02:04:13;;;;;;;19.43;9.07;;;;;;;17.48;71.08;100872.76;126289;1097;104272;-78
2021/08/15 02:06:45;;;;;;;21.50;8.75;;;;;;;17.43;71.18;100873.58;126325;1099;104169;-79
2021/08/15 02:09:16;;;;;;;19.73;9.37;;;;;;;17.40;70.87;100876.19;126242;1098;105529;-79
2021/08/15 02:11:46;;;;;;;19.77;9.13;;;;;;;17.34;71.22;100872.56;126314;1099;104310;-78
2021/08/15 02:14:17;;;;;;;21.77;8.60;;;;;;;17.30;71.17;100865.45;126297;1099;104258;-78
2021/08/15 02:16:48;;;;;;;21.50;8.95;;;;;;;17.31;71.36;100864.56;126321;1098;101985;-78
2021/08/15 02:19:21;;;;;;;20.30;8.80;;;;;;;17.31;71.74;100864.56;126325;1099;104615;-78
2021/08/15 02:21:52;;;;;;;20.60;9.10;;;;;;;17.30;71.47;100862.80;126326;1099;104721;-78
2021/08/15 02:24:23;;;;;;;23.17;10.00;;;;;;;17.27;71.59;100863.64;126316;1098;104573;-78
2021/08/15 02:26:53;;;;;;;20.23;9.50;;;;;;;17.24;71.44;100866.25;126317;1099;104137;-78
2021/08/15 02:29:24;;;;;;;23.50;9.27;;;;;;;17.21;71.67;100864.44;126290;1099;104204;-78
2021/08/15 02:31:56;;;;;;;22.83;9.77;;;;;;;17.19;71.32;100860.00;126361;1097;104174;-79
2021/08/15 02:34:29;;;;;;;19.77;9.20;;;;;;;17.18;71.64;100859.09;126330;1099;104139;-78
2021/08/15 02:37:00;;;;;;;23.40;9.27;;;;;;;17.16;71.66;100866.14;126276;1099;104146;-79
2021/08/15 02:39:31;;;;;;;20.47;9.73;;;;;;;17.15;71.61;100864.34;126327;1099;104140;-78
2021/08/15 02:42:02;;;;;;;21.57;9.20;;;;;;;17.11;71.88;100858.98;126340;1099;104140;-79
2021/08/15 02:44:35;;;;;;;21.13;9.07;;;;;;;17.11;71.70;100865.19;126334;1099;104239;-79
2021/08/15 02:47:06;;;;;;;21.40;9.55;;;;;;;17.10;72.03;100860.75;126362;1099;104153;-77
2021/08/15 02:49:37;;;;;;;23.03;9.90;;;;;;;17.12;71.87;100861.65;126296;1099;104171;-78
2021/08/15 02:52:08;;;;;;;22.97;10.00;;;;;;;17.15;72.03;100860.81;126324;1099;104563;-78
2021/08/15 02:54:39;;;;;;;21.83;9.73;;;;;;;17.16;72.13;100863.48;126363;1099;104191;-78
2021/08/15 02:57:10;;;;;;;19.67;9.90;;;;;;;17.15;72.04;100868.77;126345;1099;104163;-79
2021/08/15 02:59:41;;;;;;;20.47;10.30;;;;;;;17.12;71.80;100866.95;126366;1097;104237;-79
2021/08/15 03:02:14;;;;;;;24.77;10.67;;;;;;;17.12;72.04;100872.25;126296;1099;104268;-78
2021/08/15 03:04:46;;;;;;;26.27;10.60;;;;;;;17.11;72.04;100872.23;126300;1099;104165;-78
2021/08/15 03:07:18;;;;;;;23.17;10.83;;;;;;;17.09;72.41;100866.91;126344;1099;104149;-78
2021/08/15 03:09:50;;;;;;;22.63;11.00;;;;;;;17.09;72.33;100863.38;126330;1099;104137;-78
2021/08/15 03:12:21;;;;;;;22.30;10.80;;;;;;;17.08;72.00;100867.80;126219;1099;104207;-78
2021/08/15 03:14:51;;;;;;;23.00;10.37;;;;;;;17.10;72.14;100865.17;126306;1099;104271;-77
2021/08/15 03:17:23;;;;;;;21.77;10.07;;;;;;;17.14;72.07;100873.19;126349;1099;104198;-79
2021/08/15 03:19:54;;;;;;;21.47;10.37;;;;;;;17.14;72.32;100872.28;126306;1099;104265;-79
2021/08/15 03:22:26;;;;;;;23.77;11.03;;;;;;;17.09;72.45;100860.72;126294;1099;104248;-78
2021/08/15 03:24:57;;;;;;;24.50;11.40;;;;;;;17.02;72.40;100871.23;126324;1099;104152;-77
2021/08/15 03:27:27;;;;;;;27.15;10.80;;;;;;;16.98;72.26;100871.16;126298;1099;104717;-78
2021/08/15 03:29:58;;;;;;;23.87;11.57;;;;;;;16.94;72.75;100870.23;126365;1099;104532;-78
2021/08/15 03:32:30;;;;;;;26.37;11.47;;;;;;;16.92;72.42;100871.06;126285;1099;104198;-78
2021/08/15 03:35:01;;;;;;;25.70;11.53;;;;;;;16.88;72.52;100871.02;126312;1099;104152;-78
2021/08/15 03:37:32;;;;;;;22.87;11.07;;;;;;;16.88;72.67;100870.14;126323;1099;104149;-79
2021/08/15 03:40:04;;;;;;;26.43;10.70;;;;;;;16.85;72.77;100865.64;126334;1099;104137;-78
2021/08/15 03:42:36;;;;;;;25.33;10.60;;;;;;;16.83;73.50;100863.84;126309;1099;104169;-77
2021/08/15 03:45:09;;;;;;;23.13;9.97;;;;;;;16.80;72.61;100864.68;126314;1098;104309;-77
2021/08/15 03:47:40;;;;;;;24.72;11.28;;;;;;;16.81;72.88;100863.83;126343;1099;104235;-78
2021/08/15 03:50:11;;;;;;;24.97;10.60;;;;;;;16.83;72.85;100864.73;126332;1099;104241;-78
2021/08/15 03:52:43;;;;;;;24.43;10.20;;;;;;;16.87;72.90;100858.62;126264;1099;104341;-78
2021/08/15 03:55:13;;;;;;;22.97;10.23;;;;;;;16.90;73.41;100863.09;126318;1099;104427;-78
2021/08/15 03:57:44;;;;;;;24.00;10.20;;;;;;;16.92;73.12;100861.34;126330;1099;104181;-77
2021/08/15 04:00:17;;;;;;;22.67;10.50;;;;;;;16.97;72.89;100864.06;126248;1099;104133;-78
2021/08/15 04:02:47;;;;;;;22.37;9.67;;;;;;;17.01;72.99;100858.84;126238;1099;104243;-78
2021/08/15 04:05:18;;;;;;;22.87;10.33;;;;;;;17.04;73.27;100860.66;126324;1099;103961;-78
2021/08/15 04:07:49;;;;;;;24.30;10.60;;;;;;;17.03;72.83;100864.16;126308;1098;104140;-79
2021/08/15 04:10:20;;;;;;;25.30;11.40;;;;;;;17.00;72.91;100865.03;126290;1099;104192;-78
2021/08/15 04:12:50;;;;;;;24.27;10.03;;;;;;;17.00;73.47;100869.42;126300;1099;104143;-79
2021/08/15 04:15:23;;;;;;;22.57;10.53;;;;;;;17.00;73.67;100862.38;126298;1099;104252;-78
2021/08/15 04:17:53;;;;;;;21.03;9.77;;;;;;;17.01;73.54;100865.91;126293;1099;104621;-79
2021/08/15 04:20:26;;;;;;;26.00;10.70;;;;;;;17.04;73.47;100871.26;126314;1099;104195;-78
2021/08/15 04:22:58;;;;;;;23.83;10.57;;;;;;;17.09;73.36;100874.86;126248;1099;104137;-78
2021/08/15 04:25:31;;;;;;;23.30;10.05;;;;;;;17.13;73.49;100871.39;126279;1099;104380;-78
2021/08/15 04:28:02;;;;;;;19.03;9.83;;;;;;;17.19;73.26;100866.19;126325;1099;104143;-79
2021/08/15 04:30:34;;;;;;;24.80;9.60;;;;;;;17.24;73.06;100863.59;126342;1099;104172;-78
2021/08/15 04:33:05;;;;;;;20.40;9.93;;;;;;;17.29;73.36;100866.31;126222;1099;104137;-80
2021/08/15 04:35:36;;;;;;;19.87;8.80;;;;;;;17.34;73.40;100861.95;126288;1099;104576;-78
2021/08/15 04:38:07;;;;;;;24.13;10.40;;;;;;;17.40;73.34;100865.58;126352;1099;104204;-78
2021/08/15 04:40:37;;;;;;;21.00;9.40;;;;;;;17.47;72.98;100860.35;126336;1099;104300;-80
2021/08/15 04:43:10;;;;;;;18.97;9.20;;;;;;;17.51;73.08;100855.11;126262;1099;104201;-78
2021/08/15 04:45:42;;;;;;;20.13;9.07;;;;;;;17.57;73.42;100854.30;126332;1098;104137;-77
2021/08/15 04:48:13;;;;;;;23.57;10.63;;;;;;;17.59;73.37;100855.20;126290;1099;104143;-79
2021/08/15 04:50:44;;;;;;;23.50;9.83;;;;;;;17.63;73.12;100864.13;126338;1099;104137;-78
2021/08/15 04:53:14;;;;;;;22.83;10.27;;;;;;;17.64;73.13;100864.14;126295;1099;104735;-79
2021/08/15 04:55:45;;;;;;;21.57;9.67;;;;;;;17.67;73.40;100863.27;126297;1098;104144;-78
2021/08/15 04:58:18;;;;;;;24.03;10.10;;;;;;;17.68;73.21;100859.75;126265;1099;104137;-78
2021/08/15 05:00:49;;;;;;;19.30;10.23;;;;;;;17.72;73.28;100861.58;126158;1099;104262;-78
2021/08/15 05:03:21;;;;;;;22.33;9.57;;;;;;;17.78;73.48;100864.31;126268;1098;104160;-77
2021/08/15 05:05:54;;;;;;;23.10;10.23;;;;;;;17.81;73.23;100861.69;126312;1099;104146;-78
2021/08/15 05:08:29;;;;;;;22.10;9.57;;;;;;;17.85;73.07;100860.83;126288;1099;104303;-79
2021/08/15 05:11:00;;;;;;;20.93;9.63;;;;;;;17.93;73.03;100861.84;126337;1098;104171;-79
2021/08/15 05:13:36;;;;;;;20.63;8.87;;;;;;;17.99;73.35;100858.38;126328;1098;105499;-79
2021/08/15 05:16:08;;;;;;;20.70;9.30;;;;;;;18.06;73.16;100860.23;126363;1098;104149;-78
2021/08/15 05:18:39;;;;;;;23.77;9.53;;;;;;;18.13;72.96;100856.75;126314;1099;104169;-79
2021/08/15 05:21:10;;;;;;;22.13;9.33;;;;;;;18.23;72.96;100860.41;126275;1099;104249;-78
2021/08/15 05:23:41;;;;;;;21.23;8.97;;;;;;;18.30;73.16;100866.66;126254;1099;104245;-78
2021/08/15 05:26:15;;;;;;;23.53;9.03;;;;;;;18.39;72.83;100868.53;126248;1099;104272;-79
2021/08/15 05:28:46;;;;;;;21.73;9.70;;;;;;;18.46;72.84;100859.72;126308;1099;104261;-78
2021/08/15 05:31:16;;;;;;;21.70;9.00;;;;;;;18.54;72.37;100863.33;126337;1099;104344;-78
2021/08/15 05:33:47;;;;;;;22.27;9.40;;;;;;;18.61;72.60;100861.64;126242;1098;104159;-78
2021/08/15 05:36:20;;;;;;;20.80;9.67;;;;;;;18.69;72.29;100858.14;126362;1099;104184;-78
2021/08/15 05:38:52;;;;;;;19.03;9.50;;;;;;;18.78;72.34;100859.12;126358;1097;104143;-78
2021/08/15 05:41:25;;;;;;;21.60;9.63;;;;;;;18.85;72.61;100856.55;126282;1099;104210;-78
2021/08/15 05:43:58;;;;;;;19.92;9.55;;;;;;;18.93;72.63;100856.61;126324;1099;104146;-79
2021/08/15 05:46:33;;;;;;;19.63;9.10;;;;;;;19.01;72.59;100856.63;126314;1099;104194;-79
2021/08/15 05:49:05;;;;;;;20.55;8.43;;;;;;;19.10;72.52;100861.13;126357;1099;104149;-79
2021/08/15 05:51:36;;;;;;;20.07;8.73;;;;;;;19.18;72.25;100856.74;126324;1099;104236;-79
2021/08/15 05:54:07;;;;;;;21.77;8.67;;;;;;;19.29;71.90;100852.39;126267;1099;104150;-78
2021/08/15 05:56:37;;;;;;;18.43;8.37;;;;;;;19.38;72.48;100857.77;126359;1099;104252;-79
2021/08/15 05:59:08;;;;;;;23.60;9.40;;;;;;;19.49;71.78;100854.25;126352;1099;104137;-78
2021/08/15 06:01:38;;;;;;;19.27;8.90;;;;;;;19.57;71.24;100853.41;126351;1098;104146;-78
2021/08/15 06:04:10;;;;;;;19.80;9.47;;;;;;;19.65;71.56;100850.78;126259;1099;104169;-78
2021/08/15 06:06:42;;;;;;;22.00;8.90;;;;;;;19.73;71.25;100856.14;126368;1099;104175;-78
2021/08/15 06:09:13;;;;;;;18.10;8.47;;;;;;;19.81;71.30;100850.87;126324;1099;104137;-78
2021/08/15 06:11:46;;;;;;;19.77;9.07;;;;;;;19.88;71.39;100842.91;126339;1099;104204;-79
2021/08/15 06:14:17;;;;;;;20.95;8.55;;;;;;;19.97;70.80;100850.02;126320;1099;104194;-78
2021/08/15 06:16:49;;;;;;;18.10;8.60;;;;;;;20.05;71.33;100848.25;126350;1099;104630;-79
2021/08/15 06:19:19;;;;;;;20.17;8.40;;;;;;;20.16;70.70;100852.73;126309;1099;104220;-79
2021/08/15 06:21:50;;;;;;;20.77;9.07;;;;;;;20.27;71.11;100848.30;126339;1099;104175;-79
2021/08/15 06:24:21;;;;;;;21.63;8.87;;;;;;;20.36;70.88;100850.09;126228;1099;104331;-79
2021/08/15 06:26:52;;;;;;;19.75;8.95;;;;;;;20.43;70.83;100850.11;126325;1099;104143;-78
2021/08/15 06:29:23;;;;;;;19.30;8.33;;;;;;;20.52;71.01;100848.33;126273;1099;104235;-77
2021/08/15 06:31:53;;;;;;;18.13;8.20;;;;;;;20.61;70.00;100851.87;126374;1099;104647;-79
2021/08/15 06:34:24;;;;;;;19.93;8.73;;;;;;;20.71;70.23;100847.48;126285;1098;104205;-77
2021/08/15 06:36:54;;;;;;;23.33;9.00;;;;;;;20.82;70.44;100848.35;126291;1099;104162;-78
2021/08/15 06:39:25;;;;;;;21.20;9.47;;;;;;;20.95;69.76;100846.55;126355;1099;104188;-78
2021/08/15 06:41:56;;;;;;;19.07;8.50;;;;;;;21.08;69.90;100851.86;126355;1099;104172;-78
2021/08/15 06:44:26;;;;;;;22.93;9.30;;;;;;;21.22;70.16;100851.84;126311;1099;104229;-78
2021/08/15 06:46:57;;;;;;;19.40;8.67;;;;;;;21.34;69.27;100843.80;126350;1099;117763;-78
2021/08/15 06:49:27;;;;;;;19.60;8.93;;;;;;;21.46;69.09;100834.88;126257;1099;104198;-79
2021/08/15 06:51:59;;;;;;;20.00;8.93;;;;;;;21.59;69.53;100841.95;126347;1099;104150;-77
2021/08/15 06:54:29;;;;;;;19.47;8.90;;;;;;;21.69;69.36;100840.12;126362;1099;104137;-79
2021/08/15 06:57:00;;;;;;;20.83;8.50;;;;;;;21.79;69.13;100839.19;126315;1099;104156;-77
2021/08/15 06:59:31;;;;;;;17.53;8.20;;;;;;;21.93;68.92;100840.91;126348;1099;104165;-79
2021/08/15 07:02:02;;;;;;;19.47;8.70;;;;;;;22.11;68.21;100842.56;126312;1097;104335;-78
2021/08/15 07:04:34;;;;;;;;;;;;;;;22.28;67.72;100843.33;126372;1099;104147;-78
2021/08/15 07:07:06;;;;;;;20.37;9.37;;;;;;;22.42;67.63;100848.61;126260;1099;105249;-79
2021/08/15 07:09:37;;;;;;;24.20;9.00;;;;;;;22.54;67.88;100843.17;126358;1099;104223;-78
2021/08/15 07:12:08;;;;;;;18.70;8.40;;;;;;;22.70;67.71;100849.27;126339;1099;104268;-78
2021/08/15 07:14:41;;;;;;;20.40;8.67;;;;;;;22.88;67.21;100850.90;126293;1099;104392;-78
2021/08/15 07:17:11;;;;;;;;;;;;;;;23.13;65.87;100848.02;126310;1098;104143;-79
2021/08/15 07:19:43;;;;;;;20.70;8.90;;;;;;;23.32;66.24;100846.89;126282;1099;104173;-78
2021/08/15 07:22:14;;;;;;;18.80;8.23;;;;;;;23.51;66.33;100843.99;126287;1099;104166;-78
2021/08/15 07:24:46;;;;;;;19.20;9.00;;;;;;;23.70;66.42;100842.00;126202;1099;104255;-79
2021/08/15 07:27:17;;;;;;;21.47;9.20;;;;;;;23.89;64.94;100842.66;126089;1099;104201;-79
2021/08/15 07:29:49;;;;;;;20.23;9.50;;;;;;;24.02;65.35;100844.23;126199;1099;105266;-78
2021/08/15 07:32:22;;;;;;;17.52;8.33;;;;;;;24.16;65.04;100837.80;126208;1099;104277;-77
2021/08/15 07:34:53;;;;;;;20.60;8.57;;;;;;;24.33;63.66;100841.09;126231;1099;104258;-79
2021/08/15 07:37:28;;;;;;;19.57;9.23;;;;;;;24.44;63.33;100842.73;126113;1099;104241;-78
2021/08/15 07:39:58;;;;;;;20.33;8.77;;;;;;;24.56;63.23;100839.84;125399;1099;104185;-78
2021/08/15 07:42:29;;;;;;;19.30;8.53;;;;;;;24.67;63.58;100839.70;126202;1099;104397;-78
2021/08/15 07:45:01;;;;;;;19.97;8.70;;;;;;;24.81;62.98;100842.11;126191;1098;104178;-79
2021/08/15 07:47:33;;;;;;;19.77;7.93;;;;;;;24.97;62.52;100835.56;126159;1099;104348;-77
2021/08/15 07:50:04;;;;;;;17.33;8.20;;;;;;;25.14;62.19;100834.38;126201;1099;104760;-78
2021/08/15 07:52:35;;;;;;;21.27;8.57;;;;;;;25.21;61.24;100825.27;126190;1099;104319;-78
2021/08/15 07:55:08;;;;;;;17.53;8.27;;;;;;;25.42;61.48;100824.87;126187;1099;104418;-78
2021/08/15 07:57:38;;;;;;;15.63;7.20;;;;;;;25.61;60.23;100825.36;126200;1099;104325;-78
2021/08/15 08:00:10;;;;;;;17.87;7.40;;;;;;;25.78;60.35;100824.12;126287;1099;104169;-77
2021/08/15 08:02:42;;;;;;;14.50;6.97;;;;;;;25.92;58.73;100821.99;126315;1099;104235;-78
2021/08/15 08:05:13;;;;;;;15.20;6.33;;;;;;;26.13;58.02;100826.04;126324;1099;104242;-78
2021/08/15 08:07:46;;;;;;;15.60;6.67;;;;;;;26.23;57.88;100820.44;126282;1099;104169;-79
2021/08/15 08:10:18;;;;;;;16.97;6.90;;;;;;;26.36;56.79;100820.07;126292;1099;104239;-78
2021/08/15 08:12:48;;;;;;;13.00;6.33;;;;;;;26.54;56.07;100816.05;126268;1099;104319;-78
2021/08/15 08:15:19;;;;;;;11.90;5.73;;;;;;;26.67;55.54;100819.33;126274;1099;104224;-78
2021/08/15 08:17:50;;;;;;;14.67;6.07;;;;;;;26.77;55.08;100820.00;126248;1099;104299;-78
2021/08/15 08:20:21;;;;;;;14.10;6.00;;;;;;;26.88;54.14;100812.51;126335;1099;104156;-79
2021/08/15 08:22:54;;;;;;;15.77;5.93;;;;;;;26.95;53.82;100812.34;126345;1099;104219;-79
2021/08/15 08:25:25;;;;;;;12.40;5.87;;;;;;;26.99;53.91;100811.31;126388;1099;104568;-78
2021/08/15 08:27:55;;;;;;;13.67;5.57;;;;;;;27.06;53.43;100811.09;126273;1099;104150;-77
2021/08/15 08:30:26;;;;;;;11.03;5.63;;;;;;;27.15;52.58;100806.41;126298;1098;104138;-78
2021/08/15 08:32:57;;;;;;;11.63;5.80;;;;;;;27.16;51.47;100798.28;126330;1099;104216;-78
2021/08/15 08:35:28;;;;;;;14.30;6.10;;;;;;;27.19;51.46;100792.80;126282;1099;104181;-78
2021/08/15 08:37:59;;;;;;;12.77;5.87;;;;;;;27.31;52.00;100793.37;126259;1099;104194;-77
2021/08/15 08:40:30;;;;;;;13.20;6.13;;;;;;;27.43;51.16;100790.34;126310;1099;104306;-78
2021/08/15 08:43:01;;;;;;;14.97;5.97;;;;;;;27.52;50.77;100792.77;126332;1099;104204;-78
2021/08/15 08:45:39;;;;;;;11.47;5.77;;;;;;;27.60;50.34;100788.02;126281;1099;104262;-79
2021/08/15 08:48:10;;;;;;;14.20;6.00;;;;;;;27.74;49.46;100786.73;126274;1099;104230;-78
2021/08/15 08:50:42;;;;;;;12.37;6.00;;;;;;;27.85;48.42;100786.39;126355;1099;104211;-78
2021/08/15 08:53:14;;;;;;;15.67;6.27;;;;;;;27.93;47.69;100789.72;126294;1099;104195;-78
2021/08/15 08:55:45;;;;;;;14.63;6.07;;;;;;;27.98;48.35;100785.08;126254;1099;104246;-77
2021/08/15 08:58:15;;;;;;;13.47;5.83;;;;;;;28.00;47.69;100776.94;126279;1099;104168;-77
2021/08/15 09:00:49;;;;;;;11.63;5.70;;;;;;;28.02;47.07;100780.46;126348;1099;104153;-78
2021/08/15 09:03:20;;;;;;;11.87;5.87;;;;;;;28.08;46.71;100782.95;126315;1099;104185;-77
2021/08/15 09:05:55;;;;;;;14.17;6.43;;;;;;;28.15;46.51;100779.14;126291;1099;104258;-78
2021/08/15 09:08:33;;;;;;;13.20;5.65;;;;;;;28.23;46.59;100768.97;126262;1099;104207;-79
2021/08/15 09:11:16;;;;;;;14.40;6.20;;;;;;;28.24;45.83;100765.34;126187;1099;104300;-79
2021/08/15 09:13:59;;;;;;;13.30;5.93;;;;;;;28.22;45.19;100767.22;126316;1099;104172;-76
2021/08/15 09:16:51;;;;;;;13.53;5.63;;;;;;;28.29;45.17;100760.67;126309;1098;104194;-78
2021/08/15 09:19:35;;;;;;;14.97;6.40;;;;;;;28.40;45.40;100754.91;126319;1099;104579;-78
2021/08/15 09:22:21;;;;;;;12.87;6.10;;;;;;;28.39;44.99;100753.16;126342;1099;104184;-79
2021/08/15 09:24:55;;;;;;;12.03;6.10;;;;;;;28.37;44.17;100755.02;126247;1099;104205;-78
2021/08/15 09:27:29;;;;;;;13.03;5.83;;;;;;;28.37;43.85;100749.61;126293;1099;104239;-78
2021/08/15 09:30:14;;;;;;;13.50;6.37;;;;;;;28.38;44.40;100747.81;126387;1099;104165;-77
2021/08/15 09:32:56;;;;;;;13.43;6.37;;;;;;;28.41;43.30;100745.88;126368;1099;104166;-80
2021/08/15 09:35:31;;;;;;;15.73;6.53;;;;;;;28.55;42.86;100747.20;126306;1099;104171;-78
2021/08/15 09:38:05;;;;;;;15.53;6.23;;;;;;;28.63;42.82;100747.87;126301;1099;104453;-77
2021/08/15 09:40:40;;;;;;;14.27;6.57;;;;;;;28.69;42.49;100748.52;126361;1099;104319;-78
2021/08/15 09:43:12;;;;;;;12.60;6.17;;;;;;;28.75;42.62;100742.03;126322;1099;104239;-79
2021/08/15 09:45:50;;;;;;;15.60;6.40;;;;;;;28.75;42.81;100739.33;126350;1099;104268;-78
2021/08/15 09:48:31;;;;;;;14.70;6.10;;;;;;;28.71;42.21;100743.06;126283;1099;104338;-78
2021/08/15 09:51:14;;;;;;;14.10;5.80;;;;;;;28.69;42.41;100753.05;126327;1099;104143;-78
2021/08/15 09:54:01;;;;;;;15.03;6.30;;;;;;;28.64;42.55;100745.11;126264;1099;104146;-78
2021/08/15 09:56:36;;;;;;;15.53;7.17;;;;;;;28.69;42.48;100744.95;126331;1099;104134;-78
2021/08/15 09:59:14;;;;;;;13.63;6.50;;;;;;;28.73;42.01;100735.78;126279;1098;104152;-77
2021/08/15 10:01:48;;;;;;;14.70;6.40;;;;;;;28.72;41.98;100739.44;126292;1099;104169;-77
2021/08/15 10:04:17;;;;;;;;;;;;;;;28.69;41.70;100737.72;126382;1098;104176;-78
2021/08/15 10:06:50;;;;;;;17.20;6.60;;;;;;;28.65;41.76;100740.59;126348;1099;104194;-78
2021/08/15 10:09:21;;;;;;;;;;;;;;;28.65;41.51;100738.75;126296;1099;104159;-78
2021/08/15 10:11:54;;;;;;;14.50;6.97;;;;;;;28.75;41.71;100730.33;126348;1099;104162;-78
2021/08/15 10:14:27;;;;;;;15.97;6.80;;;;;;;28.84;41.64;100732.69;126230;1099;104200;-77
2021/08/15 10:17:04;;;;;;;14.30;6.50;;;;;;;28.72;40.38;100733.14;126330;1099;104149;-78
2021/08/15 10:19:45;;;;;;;15.77;7.13;;;;;;;28.59;39.77;100735.41;126239;1098;104653;-78
2021/08/15 10:22:28;;;;;;;13.87;6.80;;;;;;;28.62;40.28;100727.20;126316;1099;104143;-77
2021/08/15 10:25:04;;;;;;;17.20;6.87;;;;;;;28.67;40.43;100714.41;126333;1099;104140;-77
2021/08/15 10:27:49;;;;;;;14.60;7.03;;;;;;;28.69;40.66;100707.16;126316;1098;104146;-78
2021/08/15 10:30:46;;;;;;;14.15;7.42;;;;;;;28.79;40.72;100715.79;126284;1098;104175;-78
2021/08/15 10:33:27;;;;;;;15.43;7.10;;;;;;;28.85;40.40;100713.73;126293;1099;104152;-77
2021/08/15 10:36:24;;;;;;;17.67;7.77;;;;;;;28.94;40.39;100714.35;126326;1099;104264;-78
2021/08/15 10:38:59;;;;;;;15.13;7.63;;;;;;;28.96;39.99;100709.77;126311;1099;104189;-78
2021/08/15 10:41:57;;;;;;;15.97;7.57;;;;;;;29.01;39.92;100705.06;126140;1099;107807;-79
2021/08/15 10:44:50;;;;;;;18.55;8.20;;;;;;;29.03;39.53;100693.27;126304;1099;104213;-78
2021/08/15 10:47:20;;;;;;;18.20;8.30;;;;;;;29.03;39.25;100693.27;126276;1099;104147;-78
2021/08/15 10:49:53;;;;;;;14.77;7.97;;;;;;;29.00;38.98;100689.78;126254;1099;104201;-78
2021/08/15 10:52:38;;;;;;;17.27;8.13;;;;;;;29.13;38.73;100684.81;126311;1099;104137;-78
2021/08/15 10:55:17;;;;;;;18.37;7.80;;;;;;;29.27;38.66;100687.88;126311;1099;104146;-78
2021/08/15 10:57:53;;;;;;;12.40;7.05;;;;;;;29.34;38.80;100685.81;126331;1099;104168;-78
2021/08/15 11:00:48;;;;;;;14.33;7.30;;;;;;;29.32;38.37;100683.17;126192;1099;104229;-77
2021/08/15 11:03:36;;;;;;;15.77;7.30;;;;;;;29.35;38.23;100680.34;126295;1099;104271;-77
2021/08/15 11:06:28;;;;;;;18.13;8.00;;;;;;;29.32;37.93;100685.88;126319;1099;104821;-78
2021/08/15 11:09:01;;;;;;;16.17;7.47;;;;;;;29.25;37.87;100673.56;126276;1096;104265;-78
2021/08/15 11:11:35;;;;;;;15.67;7.80;;;;;;;29.16;37.61;100673.89;126290;1099;104274;-77
2021/08/15 11:14:26;;;;;;;15.23;7.50;;;;;;;29.13;37.85;100665.91;126313;1099;104210;-78
2021/08/15 11:16:58;;;;;;;15.17;8.07;;;;;;;29.15;37.73;100669.41;126336;1099;104172;-78
2021/08/15 11:19:33;;;;;;;14.13;7.53;;;;;;;29.17;37.78;100667.52;126342;1099;104143;-78
2021/08/15 11:22:25;;;;;;;15.40;7.60;;;;;;;29.18;37.86;100663.89;126186;1097;104137;-77
2021/08/15 11:25:01;;;;;;;13.33;7.27;;;;;;;29.20;37.91;100667.44;126357;1099;104220;-79
2021/08/15 11:27:36;;;;;;;14.17;7.30;;;;;;;29.20;37.88;100653.92;126268;1099;104191;-77